createdAt,value
2018-07-26T00:00:08.668Z,50.84
2018-07-26T00:02:36.293Z,50.46
2018-07-26T00:05:04.153Z,50.69
2018-07-26T00:07:31.868Z,50.55
2018-07-26T00:10:00.549Z,50.82
2018-07-26T00:12:28.186Z,50.62
2018-07-26T00:14:55.861Z,50.48
2018-07-26T00:17:23.501Z,50.66
2018-07-26T00:19:51.204Z,50.57
2018-07-26T00:22:18.817Z,51.48
2018-07-26T00:24:46.486Z,50.81
2018-07-26T00:27:14.162Z,51.43
2018-07-26T00:29:41.749Z,51.16
2018-07-26T00:32:09.464Z,51.71
2018-07-26T00:34:37.117Z,51.47
2018-07-26T00:37:04.978Z,51.25
2018-07-26T00:39:32.660Z,51.98
2018-07-26T00:42:00.238Z,51.20
2018-07-26T00:44:27.861Z,51.73
2018-07-26T00:46:55.536Z,51.44
2018-07-26T00:49:23.116Z,51.90
2018-07-26T00:51:50.787Z,52.02
2018-07-26T00:54:18.377Z,53.39
2018-07-26T00:56:46.012Z,52.63
2018-07-26T00:59:13.626Z,53.31
2018-07-26T01:01:41.211Z,52.56
2018-07-26T01:04:08.917Z,54.07
2018-07-26T01:06:36.541Z,53.84
2018-07-26T01:09:08.493Z,53.06
2018-07-26T01:11:36.278Z,52.65
2018-07-26T01:14:03.997Z,52.55
2018-07-26T01:16:31.706Z,53.43
2018-07-26T01:18:59.350Z,52.50
2018-07-26T01:21:26.957Z,53.07
2018-07-26T01:23:54.621Z,52.64
2018-07-26T01:26:22.292Z,53.10
2018-07-26T01:28:49.928Z,52.58
2018-07-26T01:31:17.589Z,53.83
2018-07-26T01:33:45.162Z,54.38
2018-07-26T01:36:12.761Z,53.96
2018-07-26T01:38:40.568Z,54.05
2018-07-26T01:41:08.257Z,54.32
2018-07-26T01:44:39.352Z,54.32
2018-07-26T01:47:07.101Z,55.21
2018-07-26T01:49:34.732Z,54.99
2018-07-26T01:52:02.423Z,54.42
2018-07-26T01:54:30.061Z,54.25
2018-07-26T01:56:57.688Z,55.14
2018-07-26T01:59:25.414Z,54.52
2018-07-26T02:01:53.026Z,54.37
2018-07-26T02:04:20.697Z,54.85
2018-07-26T02:06:48.324Z,54.88
2018-07-26T02:09:15.920Z,54.42
2018-07-26T02:11:43.668Z,54.92
2018-07-26T02:14:24.120Z,55.21
2018-07-26T02:16:51.745Z,54.70
2018-07-26T02:19:19.377Z,55.08
2018-07-26T02:21:46.970Z,54.85
2018-07-26T02:24:14.664Z,55.79
2018-07-26T02:26:42.373Z,54.68
2018-07-26T02:29:10.049Z,55.23
2018-07-26T02:31:37.715Z,55.29
2018-07-26T02:34:05.433Z,54.39
2018-07-26T02:36:33.106Z,55.19
2018-07-26T02:39:01.041Z,54.50
2018-07-26T02:41:28.648Z,55.28
2018-07-26T02:43:56.325Z,56.01
2018-07-26T02:46:24.000Z,56.20
2018-07-26T02:48:51.673Z,55.75
2018-07-26T02:53:46.487Z,56.55
2018-07-26T02:56:14.247Z,56.70
2018-07-26T02:58:41.845Z,56.50
2018-07-26T03:01:09.460Z,56.64
2018-07-26T03:03:37.082Z,56.62
2018-07-26T03:06:04.785Z,57.26
2018-07-26T03:08:32.383Z,56.69
2018-07-26T03:11:00.133Z,56.50
2018-07-26T03:13:27.808Z,57.07
2018-07-26T03:15:55.528Z,56.73
2018-07-26T03:18:23.156Z,55.60
2018-07-26T03:20:50.889Z,55.91
2018-07-26T03:23:18.482Z,55.21
2018-07-26T03:25:46.102Z,55.98
2018-07-26T03:28:13.776Z,55.22
2018-07-26T03:30:41.516Z,55.43
2018-07-26T03:33:09.141Z,55.92
2018-07-26T03:35:36.809Z,55.82
2018-07-26T03:38:04.885Z,57.02
2018-07-26T03:40:32.581Z,57.51
2018-07-26T03:43:00.192Z,57.83
2018-07-26T03:45:27.826Z,57.82
2018-07-26T03:47:55.553Z,57.09
2018-07-26T03:50:23.201Z,57.41
2018-07-26T03:52:50.946Z,56.89
2018-07-26T03:55:18.469Z,56.55
2018-07-26T03:57:46.119Z,57.07
2018-07-26T04:00:13.761Z,57.53
2018-07-26T04:02:41.469Z,56.72
2018-07-26T04:05:09.104Z,56.75
2018-07-26T04:07:36.788Z,55.91
2018-07-26T04:10:04.716Z,56.06
2018-07-26T04:12:32.382Z,56.17
2018-07-26T04:15:00.035Z,57.77
2018-07-26T04:17:27.709Z,57.12
2018-07-26T04:19:56.412Z,58.38
2018-07-26T04:22:24.092Z,57.53
2018-07-26T04:24:51.697Z,57.10
2018-07-26T04:27:19.392Z,57.71
2018-07-26T04:29:47.081Z,57.48
2018-07-26T04:32:14.986Z,57.13
2018-07-26T04:34:42.669Z,56.68
2018-07-26T04:37:10.311Z,57.01
2018-07-26T04:39:38.613Z,56.48
2018-07-26T04:42:06.353Z,56.63
2018-07-26T04:44:34.046Z,56.60
2018-07-26T04:47:01.770Z,57.52
2018-07-26T04:49:29.398Z,56.33
2018-07-26T04:51:57.055Z,57.80
2018-07-26T04:54:24.716Z,58.27
2018-07-26T04:56:52.376Z,56.35
2018-07-26T04:59:21.019Z,57.02
2018-07-26T05:01:48.901Z,58.17
2018-07-26T05:04:16.561Z,56.88
2018-07-26T05:06:44.241Z,56.89
2018-07-26T05:09:12.544Z,56.72
2018-07-26T05:11:40.501Z,56.90
2018-07-26T05:14:08.213Z,56.74
2018-07-26T05:16:36.052Z,57.17
2018-07-26T05:19:04.027Z,56.60
2018-07-26T05:21:31.866Z,55.53
2018-07-26T05:23:59.951Z,55.18
2018-07-26T05:26:27.866Z,55.22
2018-07-26T05:28:55.525Z,54.18
2018-07-26T05:31:23.316Z,54.29
2018-07-26T05:33:50.971Z,53.94
2018-07-26T05:36:18.701Z,54.04
2018-07-26T05:38:46.346Z,52.66
2018-07-26T05:41:14.001Z,52.68
2018-07-26T05:43:41.656Z,52.46
2018-07-26T05:46:09.315Z,52.15
2018-07-26T05:48:36.997Z,51.87
2018-07-26T05:51:04.782Z,52.79
2018-07-26T05:53:32.448Z,52.45
2018-07-26T05:56:00.170Z,50.97
2018-07-26T05:58:27.854Z,51.45
2018-07-26T06:00:55.606Z,51.11
2018-07-26T06:03:23.357Z,50.94
2018-07-26T06:05:51.015Z,50.76
2018-07-26T06:08:18.654Z,50.41
2018-07-26T06:10:46.359Z,49.24
2018-07-26T06:13:13.979Z,50.33
2018-07-26T06:15:41.677Z,48.57
2018-07-26T06:18:09.685Z,47.86
2018-07-26T06:20:37.345Z,48.34
2018-07-26T06:23:05.366Z,46.97
2018-07-26T06:25:33.001Z,45.93
2018-07-26T06:28:00.685Z,44.82
2018-07-26T06:30:28.329Z,44.61
2018-07-26T06:32:56.391Z,43.98
2018-07-26T06:35:24.038Z,45.18
2018-07-26T06:37:51.666Z,44.43
2018-07-26T06:40:19.353Z,44.16
2018-07-26T06:42:47.125Z,43.54
2018-07-26T06:45:14.817Z,42.26
2018-07-26T06:47:42.510Z,41.33
2018-07-26T06:50:11.542Z,42.67
2018-07-26T06:52:39.577Z,42.41
2018-07-26T06:55:07.377Z,41.16
2018-07-26T06:57:35.050Z,41.64
2018-07-26T07:00:04.938Z,41.57
2018-07-26T07:02:32.669Z,39.57
2018-07-26T07:05:00.309Z,40.49
2018-07-26T07:07:28.014Z,39.70
2018-07-26T07:09:55.646Z,39.88
2018-07-26T07:12:23.346Z,39.56
2018-07-26T07:14:51.169Z,40.10
2018-07-26T07:17:18.850Z,39.17
2018-07-26T07:19:46.601Z,39.87
2018-07-26T07:22:14.394Z,38.72
2018-07-26T07:24:42.175Z,37.82
2018-07-26T07:27:09.903Z,37.31
2018-07-26T07:29:37.549Z,36.77
2018-07-26T07:32:05.338Z,37.49
2018-07-26T07:34:33.040Z,36.88
2018-07-26T07:37:00.690Z,37.16
2018-07-26T07:39:28.410Z,36.37
2018-07-26T07:41:56.129Z,37.00
2018-07-26T07:44:23.873Z,36.15
2018-07-26T07:46:52.817Z,35.97
2018-07-26T07:49:20.453Z,36.28
2018-07-26T07:51:48.240Z,36.65
2018-07-26T07:54:16.589Z,37.42
2018-07-26T07:56:44.325Z,36.48
2018-07-26T07:59:12.159Z,34.72
2018-07-26T08:01:46.721Z,34.91
2018-07-26T08:04:14.409Z,36.03
2018-07-26T08:06:42.890Z,34.88
2018-07-26T08:09:11.345Z,34.85
2018-07-26T08:11:39.198Z,34.92
2018-07-26T08:14:07.606Z,34.62
2018-07-26T08:16:35.309Z,35.51
2018-07-26T08:19:02.982Z,34.50
2018-07-26T08:21:30.686Z,33.95
2018-07-26T08:23:58.384Z,34.62
2018-07-26T08:26:26.135Z,34.60
2018-07-26T08:29:02.105Z,34.38
2018-07-26T08:31:29.854Z,35.33
2018-07-26T08:33:57.522Z,34.21
2018-07-26T08:36:25.305Z,34.49
2018-07-26T08:38:52.965Z,34.57
2018-07-26T08:41:20.849Z,34.53
2018-07-26T08:43:48.589Z,33.86
2018-07-26T08:46:16.357Z,33.25
2018-07-26T08:48:44.124Z,34.85
2018-07-26T08:51:11.896Z,34.08
2018-07-26T08:53:39.659Z,33.69
2018-07-26T08:56:07.666Z,34.27
2018-07-26T08:58:35.512Z,35.17
2018-07-26T09:01:03.397Z,35.49
2018-07-26T09:03:31.157Z,35.12
2018-07-26T09:05:59.469Z,35.23
2018-07-26T09:08:27.342Z,35.53
2018-07-26T09:10:55.107Z,35.62
2018-07-26T09:13:22.909Z,34.78
2018-07-26T09:15:50.526Z,34.77
2018-07-26T09:20:58.290Z,33.81
2018-07-26T09:23:26.150Z,34.01
2018-07-26T09:25:53.862Z,34.39
2018-07-26T09:28:22.150Z,34.69
2018-07-26T09:30:52.914Z,35.06
2018-07-26T09:33:20.670Z,34.73
2018-07-26T09:35:48.328Z,33.50
2018-07-26T09:38:16.255Z,33.20
2018-07-26T09:40:44.214Z,33.28
2018-07-26T09:43:11.891Z,33.62
2018-07-26T09:45:39.641Z,32.73
2018-07-26T09:48:07.438Z,33.34
2018-07-26T09:50:35.141Z,33.10
2018-07-26T09:53:02.918Z,33.87
2018-07-26T09:55:30.618Z,33.14
2018-07-26T09:57:58.332Z,32.91
2018-07-26T10:00:31.755Z,32.64
2018-07-26T10:02:59.446Z,32.51
2018-07-26T10:05:27.243Z,32.11
2018-07-26T10:07:54.927Z,32.48
2018-07-26T10:10:50.978Z,33.10
2018-07-26T10:13:18.706Z,32.41
2018-07-26T10:15:46.423Z,32.70
2018-07-26T10:18:14.135Z,33.12
2018-07-26T10:20:41.910Z,32.72
2018-07-26T10:23:09.655Z,32.65
2018-07-26T10:25:37.378Z,32.56
2018-07-26T10:28:05.391Z,32.99
2018-07-26T10:30:33.110Z,32.53
2018-07-26T10:33:00.822Z,31.60
2018-07-26T10:35:28.503Z,31.76
2018-07-26T10:37:56.196Z,32.11
2018-07-26T10:40:24.385Z,31.19
2018-07-26T10:42:52.174Z,31.00
2018-07-26T10:45:19.874Z,30.92
2018-07-26T10:47:47.582Z,31.07
2018-07-26T10:50:15.298Z,30.82
2018-07-26T10:52:43.088Z,31.13
2018-07-26T10:55:10.770Z,31.28
2018-07-26T10:57:38.642Z,31.24
2018-07-26T11:00:07.708Z,30.53
2018-07-26T11:02:35.751Z,28.93
2018-07-26T11:05:04.510Z,29.45
2018-07-26T11:07:32.231Z,29.55
2018-07-26T11:10:00.191Z,30.15
2018-07-26T11:12:27.949Z,29.66
2018-07-26T11:15:05.425Z,30.22
2018-07-26T11:17:33.108Z,29.26
2018-07-26T11:20:00.911Z,29.28
2018-07-26T11:22:28.659Z,29.91
2018-07-26T11:24:56.402Z,28.73
2018-07-26T11:27:25.290Z,29.37
2018-07-26T11:29:53.123Z,29.04
2018-07-26T11:32:21.014Z,27.13
2018-07-26T11:34:48.722Z,27.35
2018-07-26T11:37:16.519Z,28.73
2018-07-26T11:39:44.302Z,28.48
2018-07-26T11:42:12.013Z,27.75
2018-07-26T11:44:39.760Z,27.29
2018-07-26T11:47:07.682Z,27.48
2018-07-26T11:49:35.607Z,27.61
2018-07-26T11:52:03.473Z,27.47
2018-07-26T11:54:31.153Z,25.00
2018-07-26T11:56:58.945Z,26.96
2018-07-26T11:59:26.714Z,28.04
2018-07-26T12:01:54.524Z,27.59
2018-07-26T12:04:22.298Z,26.77
2018-07-26T12:06:49.991Z,26.45
2018-07-26T12:09:17.793Z,26.03
2018-07-26T12:11:45.532Z,25.78
2018-07-26T12:14:13.252Z,25.65
2018-07-26T12:16:40.934Z,25.78
2018-07-26T12:19:08.664Z,24.96
2018-07-26T12:21:36.378Z,22.20
2018-07-26T12:24:04.180Z,22.42
2018-07-26T12:26:31.898Z,22.58
2018-07-26T12:28:59.701Z,23.39
2018-07-26T12:31:27.419Z,23.34
2018-07-26T12:33:55.128Z,22.13
2018-07-26T12:36:22.882Z,22.74
2018-07-26T12:38:50.577Z,22.82
2018-07-26T12:41:18.435Z,22.21
2018-07-26T12:43:46.305Z,21.44
2018-07-26T12:46:14.011Z,21.09
2018-07-26T12:48:42.599Z,21.50
2018-07-26T12:51:10.344Z,20.84
2018-07-26T12:53:38.084Z,20.20
2018-07-26T12:56:05.893Z,19.94
2018-07-26T12:58:33.611Z,19.89
2018-07-26T13:01:01.396Z,20.27
2018-07-26T13:03:29.126Z,21.30
2018-07-26T13:05:56.963Z,21.11
2018-07-26T13:08:24.727Z,22.16
2018-07-26T13:10:52.482Z,21.76
2018-07-26T13:13:20.190Z,21.94
2018-07-26T13:15:47.951Z,22.46
2018-07-26T13:18:15.707Z,22.70
2018-07-26T13:20:43.635Z,22.84
2018-07-26T13:23:11.310Z,23.79
2018-07-26T13:25:39.191Z,24.00
2018-07-26T13:28:06.927Z,23.38
2018-07-26T13:30:34.610Z,22.82
2018-07-26T13:33:02.351Z,21.61
2018-07-26T13:35:30.056Z,20.70
2018-07-26T13:37:57.918Z,21.31
2018-07-26T13:40:25.851Z,20.57
2018-07-26T13:42:53.802Z,20.36
2018-07-26T13:45:21.627Z,20.86
2018-07-26T13:47:49.486Z,21.80
2018-07-26T13:50:17.202Z,20.53
2018-07-26T13:52:44.981Z,21.18
2018-07-26T13:55:12.686Z,21.17
2018-07-26T13:57:40.562Z,21.10
2018-07-26T14:00:08.433Z,21.10
2018-07-26T14:02:36.254Z,20.43
2018-07-26T14:05:04.127Z,20.19
2018-07-26T14:07:31.889Z,20.46
2018-07-26T14:09:59.614Z,20.82
2018-07-26T14:12:27.442Z,20.61
2018-07-26T14:14:55.577Z,20.90
2018-07-26T14:17:23.539Z,21.43
2018-07-26T14:19:51.411Z,21.03
2018-07-26T14:22:19.367Z,21.04
2018-07-26T14:24:47.203Z,21.30
2018-07-26T14:27:15.108Z,21.33
2018-07-26T14:29:43.205Z,21.94
2018-07-26T14:32:11.164Z,22.48
2018-07-26T14:34:38.885Z,21.97
2018-07-26T14:37:06.776Z,22.01
2018-07-26T14:39:34.738Z,22.06
2018-07-26T14:42:02.648Z,22.38
2018-07-26T14:44:30.423Z,21.89
2018-07-26T14:46:58.106Z,21.48
2018-07-26T14:49:26.092Z,21.79
2018-07-26T14:51:53.866Z,22.15
2018-07-26T14:54:22.153Z,21.86
2018-07-26T14:56:49.822Z,21.69
2018-07-26T14:59:17.656Z,22.61
2018-07-26T15:01:45.365Z,23.16
2018-07-26T15:04:13.231Z,22.63
2018-07-26T15:06:41.167Z,22.16
2018-07-26T15:09:09.661Z,22.02
2018-07-26T15:11:37.669Z,21.80
2018-07-26T15:14:05.391Z,22.22
2018-07-26T15:16:33.243Z,22.01
2018-07-26T15:19:00.959Z,22.10
2018-07-26T15:21:28.891Z,22.27
2018-07-26T15:23:59.346Z,22.43
2018-07-26T15:26:27.335Z,22.57
2018-07-26T15:28:55.552Z,22.50
2018-07-26T15:31:23.372Z,22.40
2018-07-26T15:33:51.519Z,22.16
2018-07-26T15:36:19.537Z,21.77
2018-07-26T15:38:47.350Z,21.94
2018-07-26T15:41:15.302Z,21.41
2018-07-26T15:43:43.258Z,21.07
2018-07-26T15:46:11.025Z,21.86
2018-07-26T15:48:39.018Z,21.67
2018-07-26T15:51:06.779Z,21.55
2018-07-26T15:53:34.534Z,21.01
2018-07-26T15:56:02.439Z,20.98
2018-07-26T15:58:30.173Z,21.04
2018-07-26T16:00:58.178Z,21.28
2018-07-26T16:03:25.987Z,21.24
2018-07-26T16:05:53.866Z,21.66
2018-07-26T16:08:22.440Z,22.32
2018-07-26T16:10:52.495Z,22.30
2018-07-26T16:16:17.228Z,21.95
2018-07-26T16:18:44.894Z,21.76
2018-07-26T16:21:12.540Z,21.98
2018-07-26T16:23:40.211Z,22.17
2018-07-26T16:26:08.086Z,21.79
2018-07-26T16:28:35.803Z,21.91
2018-07-26T16:31:03.536Z,21.56
2018-07-26T16:33:31.356Z,21.33
2018-07-26T16:35:59.050Z,21.90
2018-07-26T16:38:26.685Z,21.65
2018-07-26T16:40:54.427Z,21.42
2018-07-26T16:43:22.163Z,21.54
2018-07-26T16:45:49.920Z,22.00
2018-07-26T16:48:17.624Z,22.44
2018-07-26T16:50:45.309Z,22.21
2018-07-26T16:53:13.013Z,22.12
2018-07-26T16:55:40.626Z,21.81
2018-07-26T16:58:08.290Z,22.01
2018-07-26T17:00:35.950Z,22.28
2018-07-26T17:03:03.594Z,22.40
2018-07-26T17:05:31.221Z,23.17
2018-07-26T17:07:59.004Z,23.21
2018-07-26T17:10:36.050Z,22.68
2018-07-26T17:13:03.710Z,23.45
2018-07-26T17:15:31.341Z,23.54
2018-07-26T17:17:59.022Z,23.19
2018-07-26T17:20:26.719Z,23.36
2018-07-26T17:22:54.376Z,23.06
2018-07-26T17:25:25.107Z,22.92
2018-07-26T17:27:53.981Z,23.21
2018-07-26T17:30:21.683Z,22.94
2018-07-26T17:32:49.529Z,22.95
2018-07-26T17:35:17.442Z,22.97
2018-07-26T17:37:45.582Z,23.63
2018-07-26T17:40:13.648Z,23.30
2018-07-26T17:42:41.222Z,23.25
2018-07-26T17:45:10.152Z,24.02
2018-07-26T17:47:37.981Z,23.05
2018-07-26T17:50:06.937Z,23.81
2018-07-26T17:52:34.569Z,23.67
2018-07-26T17:55:02.477Z,23.66
2018-07-26T17:57:30.242Z,23.70
2018-07-26T17:59:57.917Z,24.02
2018-07-26T18:02:25.545Z,24.47
2018-07-26T18:04:53.178Z,24.87
2018-07-26T18:07:20.797Z,25.19
2018-07-26T18:09:48.526Z,25.26
2018-07-26T18:12:16.236Z,25.89
2018-07-26T18:14:43.878Z,25.23
2018-07-26T18:17:11.550Z,25.86
2018-07-26T18:19:39.335Z,25.80
2018-07-26T18:22:07.015Z,25.98
2018-07-26T18:24:34.641Z,25.51
2018-07-26T18:27:02.389Z,26.16
2018-07-26T18:29:30.063Z,25.78
2018-07-26T18:31:57.834Z,26.22
2018-07-26T18:34:25.504Z,26.26
2018-07-26T18:36:53.137Z,25.92
2018-07-26T18:39:20.793Z,26.34
2018-07-26T18:41:48.430Z,26.84
2018-07-26T18:44:16.362Z,26.26
2018-07-26T18:46:43.865Z,26.30
2018-07-26T18:49:11.554Z,26.49
2018-07-26T18:51:39.258Z,27.00
2018-07-26T18:54:07.068Z,27.27
2018-07-26T18:56:34.737Z,26.82
2018-07-26T18:59:02.533Z,27.45
2018-07-26T19:01:30.289Z,27.63
2018-07-26T19:03:57.941Z,26.84
2018-07-26T19:06:25.568Z,27.19
2018-07-26T19:08:53.230Z,27.37
2018-07-26T19:11:20.993Z,26.92
2018-07-26T19:13:48.694Z,27.33
2018-07-26T19:16:16.341Z,27.26
2018-07-26T19:18:44.145Z,27.59
2018-07-26T19:21:11.942Z,27.43
2018-07-26T19:23:39.638Z,27.68
2018-07-26T19:26:07.371Z,27.64
2018-07-26T19:28:35.098Z,28.19
2018-07-26T19:31:02.809Z,28.40
2018-07-26T19:33:30.410Z,28.75
2018-07-26T19:35:58.054Z,28.21
2018-07-26T19:38:25.691Z,28.19
2018-07-26T19:40:53.290Z,28.34
2018-07-26T19:43:20.937Z,28.71
2018-07-26T19:45:48.573Z,29.07
2018-07-26T19:48:16.227Z,29.41
2018-07-26T19:50:43.834Z,29.24
2018-07-26T19:53:11.456Z,29.17
2018-07-26T19:55:39.160Z,30.91
2018-07-26T19:58:06.821Z,30.81
2018-07-26T20:00:34.460Z,30.80
2018-07-26T20:03:02.083Z,30.44
2018-07-26T20:05:29.728Z,30.45
2018-07-26T20:07:57.427Z,30.53
2018-07-26T20:10:25.070Z,30.76
2018-07-26T20:12:52.729Z,29.91
2018-07-26T20:15:20.489Z,30.73
2018-07-26T20:17:48.217Z,30.83
2018-07-26T20:20:15.897Z,32.77
2018-07-26T20:22:43.585Z,31.66
2018-07-26T20:25:11.354Z,32.75
2018-07-26T20:27:39.036Z,32.42
2018-07-26T20:30:08.236Z,33.49
2018-07-26T20:32:36.148Z,33.40
2018-07-26T20:35:04.188Z,32.51
2018-07-26T20:37:31.821Z,32.46
2018-07-26T20:39:59.501Z,33.21
2018-07-26T20:42:27.092Z,33.86
2018-07-26T20:44:54.720Z,33.49
2018-07-26T20:47:22.315Z,34.13
2018-07-26T20:49:50.037Z,34.80
2018-07-26T20:54:39.195Z,34.70
2018-07-26T20:57:06.884Z,35.13
2018-07-26T20:59:34.723Z,34.84
2018-07-26T21:02:02.414Z,35.34
2018-07-26T21:04:30.246Z,34.63
2018-07-26T21:06:58.040Z,34.80
2018-07-26T21:09:25.802Z,35.20
2018-07-26T21:11:53.527Z,35.47
2018-07-26T21:14:21.297Z,34.82
2018-07-26T21:16:49.071Z,35.01
2018-07-26T21:19:16.723Z,35.19
2018-07-26T21:21:44.494Z,36.28
2018-07-26T21:24:12.266Z,36.27
2018-07-26T21:26:40.039Z,36.58
2018-07-26T21:29:07.710Z,36.78
2018-07-26T21:31:35.457Z,37.77
2018-07-26T21:34:03.434Z,38.19
2018-07-26T21:36:31.158Z,37.90
2018-07-26T21:38:58.974Z,37.87
2018-07-26T21:41:26.739Z,37.83
2018-07-26T21:43:54.420Z,38.24
2018-07-26T21:46:22.166Z,38.10
2018-07-26T21:48:49.891Z,38.79
2018-07-26T21:51:17.568Z,39.65
2018-07-26T21:53:45.371Z,39.89
2018-07-26T21:56:13.086Z,40.13
2018-07-26T21:58:40.858Z,40.09
2018-07-26T22:01:08.629Z,40.77
2018-07-26T22:03:36.501Z,40.52
2018-07-26T22:06:04.716Z,40.75
2018-07-26T22:08:32.451Z,41.49
2018-07-26T22:11:00.159Z,41.48
2018-07-26T22:13:49.889Z,40.69
2018-07-26T22:19:44.619Z,41.49
2018-07-26T22:22:12.418Z,40.38
2018-07-26T22:24:40.001Z,41.49
2018-07-26T22:27:07.689Z,41.50
2018-07-26T22:29:35.295Z,41.99
2018-07-26T22:32:02.961Z,41.79
2018-07-26T22:34:30.589Z,41.79
2018-07-26T22:36:58.377Z,41.69
2018-07-26T22:39:26.072Z,41.37
2018-07-26T22:41:53.657Z,41.69
2018-07-26T22:44:21.440Z,42.01
2018-07-26T22:46:49.034Z,41.44
2018-07-26T22:49:16.920Z,41.69
2018-07-26T22:51:44.602Z,42.33
2018-07-26T22:54:12.253Z,41.92
2018-07-26T22:56:39.997Z,42.04
2018-07-26T22:59:07.653Z,42.73
2018-07-26T23:01:35.220Z,43.11
2018-07-26T23:04:02.923Z,42.24
2018-07-26T23:06:30.532Z,41.93
2018-07-26T23:08:58.212Z,42.29
2018-07-26T23:11:25.881Z,41.80
2018-07-26T23:13:53.569Z,42.15
2018-07-26T23:16:21.269Z,43.20
2018-07-26T23:18:48.964Z,42.52
2018-07-26T23:21:16.557Z,43.09
2018-07-26T23:23:44.447Z,42.77
2018-07-26T23:26:12.124Z,42.68
2018-07-26T23:28:39.930Z,42.48
2018-07-26T23:31:07.641Z,43.28
2018-07-26T23:33:35.263Z,43.19
2018-07-26T23:36:02.952Z,42.45
2018-07-26T23:38:30.595Z,43.62
2018-07-26T23:40:58.201Z,43.29
2018-07-26T23:43:25.829Z,43.57
2018-07-26T23:45:53.824Z,43.63
2018-07-26T23:48:21.428Z,43.52
2018-07-26T23:50:49.069Z,44.54
2018-07-26T23:53:16.676Z,43.45
2018-07-26T23:55:44.273Z,44.04
2018-07-26T23:58:12.049Z,43.75
